Terminal Aerodrome Forecast
Issued by NWS Blacksburg, VA

Current Version | Previous Version | Graphics & Text | Print | Product List | Glossary On
Versions: 1 2 3 4 5 6 7 8 9 10 11 12 13
000
FTUS41 KRNK 262336
TAFBLF
TAF
KBLF 262336Z 2700/2724 28006KT P6SM SCT028 BKN080
     FM270800 23003KT 4SM BR SCT015 BKN050
     FM271400 24004KT P6SM SCT040 BKN100
     FM271900 17004KT P6SM OVC040=

USA.gov is the U.S. government's official web portal to all federal, state and local government web resources and services.